createdAt,value
2018-12-20T00:00:33.801Z,97.30
2018-12-20T00:03:04.759Z,97.50
2018-12-20T00:05:34.834Z,97.70
2018-12-20T00:08:09.831Z,97.90
2018-12-20T00:10:44.716Z,98.10
2018-12-20T00:13:19.799Z,98.40
2018-12-20T00:15:55.718Z,98.60
2018-12-20T00:18:30.398Z,98.70
2018-12-20T00:21:01.750Z,98.60
2018-12-20T00:23:37.275Z,98.40
2018-12-20T00:26:10.896Z,98.30
2018-12-20T00:28:46.549Z,98.40
2018-12-20T00:31:20.283Z,98.20
2018-12-20T00:33:55.224Z,97.90
2018-12-20T00:36:30.928Z,97.80
2018-12-20T00:39:06.979Z,97.70
2018-12-20T00:41:40.624Z,97.90
2018-12-20T00:44:15.430Z,98.10
2018-12-20T00:46:51.042Z,98.00
2018-12-20T00:49:26.739Z,97.80
2018-12-20T00:51:57.973Z,97.70
2018-12-20T00:54:33.216Z,97.80
2018-12-20T00:57:08.083Z,97.70
2018-12-20T00:59:46.369Z,97.70
2018-12-20T01:02:19.496Z,98.00
2018-12-20T01:04:48.693Z,98.00
2018-12-20T01:07:28.408Z,98.00
2018-12-20T01:09:59.090Z,97.90
2018-12-20T01:12:29.706Z,97.70
2018-12-20T01:15:05.607Z,97.70
2018-12-20T01:17:38.123Z,97.60
2018-12-20T01:20:11.494Z,97.60
2018-12-20T01:22:40.576Z,97.80
2018-12-20T01:25:15.612Z,98.00
2018-12-20T01:27:49.313Z,98.10
2018-12-20T01:30:24.373Z,98.00
2018-12-20T01:32:57.527Z,97.80
2018-12-20T01:35:33.208Z,97.50
2018-12-20T01:38:06.864Z,97.50
2018-12-20T01:40:38.322Z,97.50
2018-12-20T01:43:13.621Z,97.50
2018-12-20T01:45:49.585Z,97.70
2018-12-20T01:48:20.638Z,97.40
2018-12-20T01:50:55.794Z,97.40
2018-12-20T01:53:27.035Z,97.30
2018-12-20T01:56:02.076Z,97.30
2018-12-20T01:58:37.085Z,97.40
2018-12-20T02:01:08.332Z,97.40
2018-12-20T02:03:42.244Z,97.30
2018-12-20T02:06:17.315Z,97.30
2018-12-20T02:08:50.744Z,97.20
2018-12-20T02:11:22.042Z,97.10
2018-12-20T02:13:55.200Z,97.10
2018-12-20T02:16:30.182Z,97.10
2018-12-20T02:19:06.897Z,97.10
2018-12-20T02:21:38.062Z,97.10
2018-12-20T02:24:13.516Z,97.20
2018-12-20T02:26:47.054Z,97.20
2018-12-20T02:29:21.765Z,97.20
2018-12-20T02:31:57.615Z,97.30
2018-12-20T02:34:32.881Z,97.40
2018-12-20T02:37:06.482Z,97.50
2018-12-20T02:39:41.251Z,97.50
2018-12-20T02:42:12.590Z,97.40
2018-12-20T02:44:48.577Z,97.50
2018-12-20T02:47:28.732Z,97.30
2018-12-20T02:50:04.111Z,97.20
2018-12-20T02:52:35.401Z,97.60
2018-12-20T02:55:16.100Z,97.60
2018-12-20T02:57:49.795Z,97.70
2018-12-20T03:00:24.683Z,97.90
2018-12-20T03:02:55.759Z,97.70
2018-12-20T03:05:28.951Z,97.70
2018-12-20T03:08:02.977Z,97.60
2018-12-20T03:10:49.492Z,97.70
2018-12-20T03:13:20.529Z,97.80
2018-12-20T03:15:51.678Z,97.70
2018-12-20T03:18:27.196Z,97.80
2018-12-20T03:21:06.913Z,97.80
2018-12-20T03:23:42.351Z,97.80
2018-12-20T03:26:13.501Z,97.70
2018-12-20T03:31:36.819Z,97.50
2018-12-20T03:34:12.295Z,97.20
2018-12-20T03:36:43.487Z,97.30
2018-12-20T03:39:19.518Z,97.30
2018-12-20T03:41:50.513Z,97.20
2018-12-20T03:44:23.779Z,97.00
2018-12-20T03:46:57.551Z,97.00
2018-12-20T03:49:26.968Z,97.10
2018-12-20T03:51:57.939Z,97.20
2018-12-20T03:54:29.372Z,97.50
2018-12-20T03:57:04.517Z,97.20
2018-12-20T03:59:39.697Z,96.70
2018-12-20T04:02:13.165Z,96.70
2018-12-20T04:04:48.782Z,96.60
2018-12-20T04:07:20.410Z,96.40
2018-12-20T04:09:56.436Z,96.50
2018-12-20T04:12:27.675Z,96.20
2018-12-20T04:14:58.484Z,96.20
2018-12-20T04:17:33.586Z,96.20
2018-12-20T04:20:08.607Z,96.30
2018-12-20T04:22:42.393Z,96.20
2018-12-20T04:25:18.109Z,96.30
2018-12-20T04:27:51.820Z,96.50
2018-12-20T04:30:22.963Z,96.50
2018-12-20T04:32:56.320Z,96.80
2018-12-20T04:35:31.148Z,97.00
2018-12-20T04:38:02.379Z,97.10
2018-12-20T04:40:31.165Z,97.10
2018-12-20T04:43:04.508Z,96.90
2018-12-20T04:45:46.407Z,96.90
2018-12-20T04:48:15.758Z,97.10
2018-12-20T04:50:49.623Z,97.30
2018-12-20T04:53:20.766Z,97.50
2018-12-20T04:55:54.156Z,97.80
2018-12-20T04:58:29.814Z,98.00
2018-12-20T05:01:03.493Z,98.10
2018-12-20T05:03:38.366Z,98.20
2018-12-20T05:06:14.015Z,97.90
2018-12-20T05:08:47.922Z,98.00
2018-12-20T05:11:21.696Z,98.40
2018-12-20T05:13:55.558Z,97.80
2018-12-20T05:16:24.859Z,97.70
2018-12-20T05:18:54.639Z,97.70
2018-12-20T05:21:24.614Z,97.60
2018-12-20T05:23:58.620Z,97.70
2018-12-20T05:26:32.536Z,97.60
2018-12-20T05:29:06.072Z,97.50
2018-12-20T05:31:40.003Z,97.50
2018-12-20T05:34:15.551Z,97.40
2018-12-20T05:36:49.185Z,97.70
2018-12-20T05:39:20.776Z,97.80
2018-12-20T05:41:53.181Z,97.90
2018-12-20T05:44:24.177Z,98.10
2018-12-20T05:46:59.446Z,98.60
2018-12-20T05:49:28.969Z,97.70
2018-12-20T05:52:00.459Z,97.70
2018-12-20T05:54:34.711Z,97.80
2018-12-20T05:57:05.989Z,97.60
2018-12-20T05:59:37.869Z,97.40
2018-12-20T06:02:12.039Z,97.20
2018-12-20T06:04:45.554Z,97.30
2018-12-20T06:07:20.456Z,97.30
2018-12-20T06:09:55.984Z,97.20
2018-12-20T06:15:05.104Z,97.20
2018-12-20T06:17:36.862Z,97.30
2018-12-20T06:20:16.649Z,97.40
2018-12-20T06:22:51.328Z,97.20
2018-12-20T06:25:34.915Z,97.50
2018-12-20T06:28:10.588Z,97.40
2018-12-20T06:30:39.952Z,97.30
2018-12-20T06:33:14.901Z,97.40
2018-12-20T06:35:46.462Z,97.10
2018-12-20T06:38:18.016Z,97.30
2018-12-20T06:40:48.887Z,97.30
2018-12-20T06:43:24.275Z,97.30
2018-12-20T06:45:51.919Z,97.10
2018-12-20T06:48:19.530Z,97.20
2018-12-20T06:50:59.551Z,97.30
2018-12-20T06:53:27.135Z,97.30
2018-12-20T06:55:54.808Z,96.80
2018-12-20T06:58:22.415Z,97.00
2018-12-20T07:00:50.200Z,97.00
2018-12-20T07:03:17.906Z,97.10
2018-12-20T07:05:45.686Z,97.20
2018-12-20T07:08:13.520Z,97.20
2018-12-20T07:10:41.235Z,97.40
2018-12-20T07:13:08.852Z,97.10
2018-12-20T07:15:36.679Z,97.10
2018-12-20T07:18:04.419Z,97.10
2018-12-20T07:20:32.052Z,97.50
2018-12-20T07:22:59.695Z,97.60
2018-12-20T07:25:27.421Z,97.50
2018-12-20T07:27:55.118Z,97.40
2018-12-20T07:30:22.791Z,97.50
2018-12-20T07:32:50.494Z,97.30
2018-12-20T07:35:18.136Z,97.40
2018-12-20T07:37:45.819Z,97.30
2018-12-20T07:40:13.621Z,97.20
2018-12-20T07:42:41.373Z,97.40
2018-12-20T07:45:09.305Z,97.60
2018-12-20T07:47:36.904Z,97.50
2018-12-20T07:50:06.076Z,97.60
2018-12-20T07:52:33.737Z,97.60
2018-12-20T07:55:01.620Z,97.40
2018-12-20T07:57:29.320Z,97.40
2018-12-20T08:00:01.899Z,97.40
2018-12-20T08:02:29.716Z,97.50
2018-12-20T08:04:58.033Z,97.40
2018-12-20T08:07:28.417Z,97.60
2018-12-20T08:09:56.323Z,97.50
2018-12-20T08:12:23.959Z,97.40
2018-12-20T08:14:51.939Z,97.50
2018-12-20T08:17:19.649Z,97.20
2018-12-20T08:19:47.228Z,97.30
2018-12-20T08:22:14.928Z,97.20
2018-12-20T08:24:42.697Z,97.20
2018-12-20T08:27:10.359Z,97.20
2018-12-20T08:29:39.110Z,97.20
2018-12-20T08:32:06.755Z,97.20
2018-12-20T08:34:34.486Z,97.50
2018-12-20T08:37:02.264Z,97.50
2018-12-20T08:39:29.799Z,97.70
2018-12-20T08:41:57.465Z,97.60
2018-12-20T08:44:25.135Z,97.30
2018-12-20T08:46:54.452Z,97.20
2018-12-20T08:49:22.418Z,97.20
2018-12-20T08:51:50.139Z,96.50
2018-12-20T08:54:17.890Z,96.50
2018-12-20T08:56:45.588Z,96.50
2018-12-20T08:59:13.176Z,96.50
2018-12-20T09:01:41.052Z,96.60
2018-12-20T09:04:08.668Z,96.70
2018-12-20T09:06:36.255Z,96.60
2018-12-20T09:09:06.179Z,96.20
2018-12-20T09:11:33.869Z,96.10
2018-12-20T09:14:01.906Z,96.00
2018-12-20T09:16:30.149Z,96.10
2018-12-20T09:18:57.831Z,96.10
2018-12-20T09:21:25.483Z,96.00
2018-12-20T09:23:53.208Z,96.20
2018-12-20T09:26:21.000Z,96.00
2018-12-20T09:28:48.691Z,95.70
2018-12-20T09:31:16.467Z,95.80
2018-12-20T09:33:44.126Z,95.70
2018-12-20T09:36:11.814Z,95.80
2018-12-20T09:38:39.595Z,96.00
2018-12-20T09:41:07.275Z,96.10
2018-12-20T09:43:34.891Z,95.70
2018-12-20T09:46:02.529Z,95.70
2018-12-20T09:48:30.165Z,95.50
2018-12-20T09:50:57.751Z,95.80
2018-12-20T09:53:25.424Z,95.70
2018-12-20T09:55:53.091Z,95.70
2018-12-20T09:58:20.700Z,95.30
2018-12-20T10:00:48.530Z,95.20
2018-12-20T10:03:16.147Z,95.40
2018-12-20T10:05:47.718Z,95.20
2018-12-20T10:08:16.439Z,94.90
2018-12-20T10:10:44.136Z,94.80
2018-12-20T10:13:11.899Z,94.50
2018-12-20T10:15:39.887Z,94.10
2018-12-20T10:18:17.718Z,94.00
2018-12-20T10:20:45.512Z,93.60
2018-12-20T10:23:13.315Z,93.80
2018-12-20T10:25:41.091Z,94.10
2018-12-20T10:28:08.964Z,94.00
2018-12-20T10:30:36.786Z,93.40
2018-12-20T10:33:04.563Z,93.40
2018-12-20T10:35:32.337Z,93.30
2018-12-20T10:38:00.204Z,93.20
2018-12-20T10:40:27.846Z,93.10
2018-12-20T10:42:55.659Z,93.20
2018-12-20T10:45:23.340Z,93.20
2018-12-20T10:47:51.159Z,93.30
2018-12-20T10:50:18.989Z,93.20
2018-12-20T10:52:46.807Z,93.20
2018-12-20T10:55:14.619Z,92.80
2018-12-20T10:57:42.526Z,92.60
2018-12-20T11:00:10.440Z,92.50
2018-12-20T11:02:43.687Z,92.30
2018-12-20T11:05:17.040Z,92.00
2018-12-20T11:07:50.436Z,91.80
2018-12-20T11:10:23.805Z,91.90
2018-12-20T11:12:59.759Z,91.60
2018-12-20T11:15:27.450Z,91.80
2018-12-20T11:20:47.748Z,90.90
2018-12-20T11:23:15.535Z,90.80
2018-12-20T11:25:43.426Z,90.60
2018-12-20T11:28:11.150Z,91.00
2018-12-20T11:30:38.972Z,91.10
2018-12-20T11:36:06.059Z,91.20
2018-12-20T11:38:33.838Z,90.90
2018-12-20T11:41:13.691Z,90.70
2018-12-20T11:43:41.415Z,91.00
2018-12-20T11:46:09.099Z,91.00
2018-12-20T11:48:36.895Z,91.20
2018-12-20T11:51:04.491Z,91.20
2018-12-20T11:53:32.174Z,91.10
2018-12-20T11:55:59.815Z,90.70
2018-12-20T11:58:27.458Z,90.90
2018-12-20T12:00:55.338Z,90.90
2018-12-20T12:03:23.358Z,90.70
2018-12-20T12:05:51.487Z,90.80
2018-12-20T12:08:19.235Z,90.90
2018-12-20T12:10:47.258Z,90.40
2018-12-20T12:13:14.996Z,90.40
2018-12-20T12:15:42.780Z,90.80
2018-12-20T12:18:10.438Z,90.80
2018-12-20T12:20:38.392Z,90.90
2018-12-20T12:23:06.176Z,92.90
2018-12-20T12:25:33.937Z,91.00
2018-12-20T12:28:01.660Z,90.50
2018-12-20T12:30:38.613Z,90.50
2018-12-20T12:33:06.389Z,90.80
2018-12-20T12:35:34.187Z,90.70
2018-12-20T12:38:02.470Z,90.50
2018-12-20T12:40:30.781Z,90.10
2018-12-20T12:42:58.930Z,90.20
2018-12-20T12:45:32.820Z,90.40
2018-12-20T12:48:03.558Z,89.60
2018-12-20T12:50:32.044Z,90.10
2018-12-20T12:53:00.145Z,89.10
2018-12-20T12:55:28.222Z,89.60
2018-12-20T12:58:04.451Z,89.20
2018-12-20T13:00:27.052Z,89.50
2018-12-20T13:02:54.845Z,89.20
2018-12-20T13:05:26.121Z,89.10
2018-12-20T13:07:53.948Z,88.60
2018-12-20T13:10:21.807Z,90.00
2018-12-20T13:12:50.106Z,89.30
2018-12-20T13:15:18.201Z,89.40
2018-12-20T13:17:46.288Z,89.30
2018-12-20T13:20:16.358Z,89.50
2018-12-20T13:22:44.607Z,89.80
2018-12-20T13:25:12.511Z,90.10
2018-12-20T13:27:40.414Z,89.60
2018-12-20T13:30:10.390Z,90.00
2018-12-20T13:32:38.015Z,90.10
2018-12-20T13:35:05.946Z,89.50
2018-12-20T13:37:39.294Z,89.30
2018-12-20T13:40:07.534Z,90.00
2018-12-20T13:42:35.498Z,90.10
2018-12-20T13:45:04.418Z,90.00
2018-12-20T13:47:38.683Z,89.90
2018-12-20T13:50:08.541Z,90.00
2018-12-20T13:52:51.297Z,89.40
2018-12-20T13:55:20.307Z,89.30
2018-12-20T13:57:54.174Z,89.40
2018-12-20T14:00:22.371Z,90.00
2018-12-20T14:02:57.987Z,90.00
2018-12-20T14:05:26.266Z,89.80
2018-12-20T14:07:58.789Z,90.10
2018-12-20T14:10:24.946Z,89.40
2018-12-20T14:12:53.282Z,89.30
2018-12-20T14:15:41.865Z,89.60
2018-12-20T14:18:13.167Z,90.00
2018-12-20T14:20:41.362Z,89.90
2018-12-20T14:23:15.232Z,90.00
2018-12-20T14:25:43.456Z,89.80
2018-12-20T14:28:22.325Z,89.70
2018-12-20T14:31:08.944Z,90.00
2018-12-20T14:33:37.383Z,90.00
2018-12-20T14:36:05.629Z,90.10
2018-12-20T14:41:35.073Z,90.20
2018-12-20T14:44:25.974Z,90.30
2018-12-20T14:47:07.189Z,90.30
2018-12-20T14:49:50.007Z,90.20
2018-12-20T14:52:18.530Z,90.30
2018-12-20T14:54:52.226Z,90.30
2018-12-20T14:57:26.571Z,90.40
2018-12-20T15:03:03.057Z,90.40
2018-12-20T15:05:38.561Z,90.40
2018-12-20T15:08:14.703Z,90.50
2018-12-20T15:10:49.021Z,90.50
2018-12-20T15:13:28.980Z,90.50
2018-12-20T15:16:03.195Z,90.60
2018-12-20T15:18:47.771Z,90.70
2018-12-20T15:21:34.364Z,90.70
2018-12-20T15:24:10.341Z,90.70
2018-12-20T15:26:51.791Z,90.90
2018-12-20T15:29:38.565Z,90.80
2018-12-20T15:32:12.342Z,90.80
2018-12-20T15:34:50.521Z,90.60
2018-12-20T15:37:28.201Z,90.70
2018-12-20T15:46:18.859Z,90.90
2018-12-20T15:49:05.613Z,90.90
2018-12-20T15:51:39.689Z,91.00
2018-12-20T16:06:36.754Z,91.10
2018-12-20T16:15:16.900Z,91.50
2018-12-20T16:26:31.639Z,92.00
2018-12-20T16:29:05.254Z,92.10
2018-12-20T16:31:42.787Z,92.00
2018-12-20T16:34:31.320Z,91.90
2018-12-20T16:37:09.839Z,91.90
2018-12-20T16:39:42.537Z,92.00
2018-12-20T16:42:17.035Z,92.00
2018-12-20T16:44:55.830Z,92.10
2018-12-20T16:47:36.129Z,92.30
2018-12-20T16:50:11.600Z,92.30
2018-12-20T16:52:46.007Z,92.50
2018-12-20T16:55:23.774Z,92.60
2018-12-20T16:58:03.907Z,92.70
2018-12-20T17:00:40.969Z,93.00
2018-12-20T17:03:26.093Z,93.00
2018-12-20T17:06:04.022Z,93.10
2018-12-20T17:08:48.096Z,93.10
2018-12-20T17:11:31.610Z,93.00
2018-12-20T17:14:13.151Z,92.90
2018-12-20T17:16:51.477Z,93.10
2018-12-20T17:19:23.548Z,95.80
2018-12-20T17:22:00.839Z,92.90
2018-12-20T17:24:35.904Z,92.80
2018-12-20T17:27:16.722Z,92.80
2018-12-20T17:30:03.943Z,92.80
2018-12-20T17:32:38.361Z,92.80
2018-12-20T17:35:16.108Z,92.80
2018-12-20T17:37:49.858Z,92.90
2018-12-20T17:40:21.553Z,92.70
2018-12-20T17:42:55.144Z,92.70
2018-12-20T17:45:33.871Z,92.80
2018-12-20T17:48:09.361Z,92.80
2018-12-20T17:50:38.837Z,92.80
2018-12-20T17:53:13.216Z,92.80
2018-12-20T17:59:04.188Z,92.90
2018-12-20T18:01:46.008Z,92.80
2018-12-20T18:04:32.668Z,92.90
2018-12-20T18:10:13.395Z,92.90
2018-12-20T18:13:01.633Z,92.80
2018-12-20T18:15:43.545Z,92.90
2018-12-20T18:21:34.356Z,92.80
2018-12-20T18:24:24.927Z,92.80
2018-12-20T18:45:24.981Z,92.80
2018-12-20T18:47:59.259Z,92.70
2018-12-20T18:50:35.877Z,92.60
2018-12-20T18:53:23.515Z,92.60
2018-12-20T18:56:07.208Z,92.50
2018-12-20T19:07:48.775Z,92.50
2018-12-20T19:47:06.246Z,92.30
2018-12-20T19:49:40.031Z,92.20
2018-12-20T19:52:14.477Z,92.30
2018-12-20T19:54:49.388Z,92.30
2018-12-20T19:57:35.736Z,92.10
2018-12-20T20:00:12.540Z,92.30
2018-12-20T20:02:53.009Z,92.20
2018-12-20T20:05:28.421Z,92.20
2018-12-20T20:08:05.449Z,92.30
2018-12-20T20:19:11.538Z,91.80
2018-12-20T20:21:47.854Z,92.00
2018-12-20T20:24:22.509Z,92.00
2018-12-20T20:32:37.146Z,92.00
2018-12-20T20:35:17.791Z,91.80
2018-12-20T20:38:04.150Z,91.80
2018-12-20T20:40:45.476Z,91.80
2018-12-20T20:46:22.099Z,91.80
2018-12-20T20:48:54.326Z,91.90
2018-12-20T20:51:28.581Z,91.90
2018-12-20T20:54:04.375Z,91.80
2018-12-20T20:56:40.829Z,91.60
2018-12-20T20:59:21.323Z,91.60
2018-12-20T21:02:01.192Z,91.60
2018-12-20T21:04:42.692Z,91.60
2018-12-20T21:07:20.146Z,91.40
2018-12-20T21:10:00.702Z,91.40
2018-12-20T21:12:44.579Z,91.40
2018-12-20T21:15:25.391Z,91.20
2018-12-20T21:23:30.666Z,91.20
2018-12-20T21:26:17.055Z,91.20
2018-12-20T21:31:57.166Z,91.70
2018-12-20T21:34:38.823Z,91.70
2018-12-20T21:40:33.281Z,91.80
2018-12-20T21:43:21.405Z,92.10
2018-12-20T21:48:54.313Z,92.30
2018-12-20T21:51:29.849Z,92.30
2018-12-20T21:56:56.755Z,92.60
2018-12-20T21:59:30.560Z,92.70
2018-12-20T22:02:05.796Z,92.80
2018-12-20T22:04:43.698Z,92.80
2018-12-20T22:12:55.628Z,93.10
2018-12-20T22:15:29.223Z,93.20
2018-12-20T22:18:01.762Z,93.20
2018-12-20T22:23:17.964Z,93.10
2018-12-20T22:25:51.756Z,93.00
2018-12-20T22:31:07.671Z,92.80
2018-12-20T22:33:54.340Z,92.70
2018-12-20T22:36:29.464Z,92.80
2018-12-20T22:41:52.927Z,93.10
2018-12-20T22:44:39.120Z,93.30
2018-12-20T22:47:13.631Z,93.50
2018-12-20T22:49:53.898Z,93.60
2018-12-20T22:52:25.659Z,93.60
2018-12-20T22:54:58.899Z,93.80
2018-12-20T22:57:33.534Z,93.90
2018-12-20T23:00:15.620Z,94.00
2018-12-20T23:02:46.944Z,94.10
2018-12-20T23:14:24.759Z,94.10
2018-12-20T23:17:00.319Z,93.90
2018-12-20T23:19:35.216Z,94.30
2018-12-20T23:22:06.394Z,94.10
2018-12-20T23:24:39.714Z,93.90
2018-12-20T23:27:15.708Z,93.90
2018-12-20T23:29:50.584Z,93.90
2018-12-20T23:32:24.176Z,94.00
2018-12-20T23:34:59.913Z,94.10
2018-12-20T23:37:33.046Z,94.10
2018-12-20T23:40:08.065Z,94.10
2018-12-20T23:42:36.995Z,94.00
2018-12-20T23:45:12.285Z,94.10
2018-12-20T23:47:43.743Z,94.10
2018-12-20T23:50:18.828Z,93.90
2018-12-20T23:52:50.107Z,93.90
2018-12-20T23:55:25.331Z,93.80
2018-12-20T23:58:03.271Z,93.80
